Time;durP1;ratioP1;P1;durP2;ratioP2;P2;SDS_P1;SDS_P2;PMS_P1;PMS_P2;Temp;Humidity;BMP_temperature;BMP_pressure;BME280_temperature;BME280_humidity;BME280_pressure;Samples;Min_cycle;Max_cycle;Signal;HPM_P1;HPM_P2
2023/12/20 00:00:55;;;;;;;1999.90;999.90;;;8.10;99.90;;;;;;4992985;28;20406;-73
2023/12/20 00:03:20;;;;;;;1999.90;999.90;;;8.10;99.90;;;;;;4993180;28;20821;-73
2023/12/20 00:05:47;;;;;;;1999.90;999.90;;;8.00;99.90;;;;;;4993097;28;20189;-73
2023/12/20 00:08:13;;;;;;;1999.90;999.90;;;7.60;99.90;;;;;;4992952;28;20206;-72
2023/12/20 00:10:38;;;;;;;1999.90;999.90;;;8.10;99.90;;;;;;4992902;28;20778;-72
2023/12/20 00:13:04;;;;;;;1999.90;999.90;;;8.00;99.90;;;;;;4992751;28;20245;-72
2023/12/20 00:15:29;;;;;;;1999.90;999.90;;;8.00;99.90;;;;;;4992929;28;20173;-72
2023/12/20 00:17:55;;;;;;;1999.90;999.90;;;8.00;99.90;;;;;;4992926;28;20661;-73
2023/12/20 00:20:21;;;;;;;1999.90;999.90;;;7.90;99.90;;;;;;4992726;28;20188;-73
2023/12/20 00:22:46;;;;;;;1999.90;999.90;;;8.00;99.90;;;;;;4992776;28;20201;-72
2023/12/20 00:25:12;;;;;;;1999.90;999.90;;;8.20;99.90;;;;;;4992848;28;20177;-72
2023/12/20 00:27:37;;;;;;;1999.90;999.90;;;7.90;99.90;;;;;;4992687;28;20236;-72
2023/12/20 00:30:03;;;;;;;1999.90;999.90;;;7.80;99.90;;;;;;4992694;28;20812;-72
2023/12/20 00:32:29;;;;;;;1999.90;999.90;;;7.80;99.90;;;;;;4992652;28;20170;-72
2023/12/20 00:34:54;;;;;;;1999.90;999.90;;;7.70;99.90;;;;;;4992538;28;20452;-72
2023/12/20 00:37:20;;;;;;;1999.90;999.90;;;8.00;99.90;;;;;;4992636;28;20664;-72
2023/12/20 00:39:46;;;;;;;1999.90;999.90;;;7.80;99.90;;;;;;4992368;28;20194;-72
2023/12/20 00:42:11;;;;;;;1999.90;999.90;;;7.50;99.90;;;;;;4992527;28;20173;-72
2023/12/20 00:44:37;;;;;;;1999.90;999.90;;;7.80;99.90;;;;;;4992441;28;20546;-73
2023/12/20 00:47:03;;;;;;;1999.90;999.90;;;7.60;99.90;;;;;;4992685;28;20657;-71
2023/12/20 00:49:28;;;;;;;1999.90;999.90;;;7.60;99.90;;;;;;4992180;28;20422;-72
2023/12/20 00:51:54;;;;;;;1999.90;999.90;;;7.90;99.90;;;;;;4992409;28;20180;-72
2023/12/20 00:54:19;;;;;;;1999.90;999.90;;;7.50;99.90;;;;;;4992314;28;20198;-73
2023/12/20 00:56:45;;;;;;;1999.90;999.90;;;7.50;99.90;;;;;;4992412;28;20170;-72
2023/12/20 00:59:11;;;;;;;1999.90;999.90;;;7.50;99.90;;;;;;4992265;28;20661;-73
2023/12/20 01:01:36;;;;;;;1999.90;999.90;;;7.50;99.90;;;;;;4992233;28;20655;-72
2023/12/20 01:04:02;;;;;;;1999.90;999.90;;;7.30;99.90;;;;;;4992216;28;20177;-73
2023/12/20 01:06:28;;;;;;;1999.90;999.90;;;7.50;99.90;;;;;;4992348;28;20209;-73
2023/12/20 01:08:53;;;;;;;1999.90;999.90;;;7.50;99.90;;;;;;4992159;28;20584;-73
2023/12/20 01:11:19;;;;;;;1999.90;999.90;;;7.80;99.90;;;;;;4992085;28;20909;-73
2023/12/20 01:13:44;;;;;;;1999.90;999.90;;;7.50;99.90;;;;;;4992104;28;20209;-72
2023/12/20 01:16:11;;;;;;;1999.90;999.90;;;7.50;99.90;;;;;;4992232;28;20174;-73
2023/12/20 01:18:38;;;;;;;1999.90;999.90;;;7.50;99.90;;;;;;4992190;28;20269;-73
2023/12/20 01:21:04;;;;;;;1999.90;999.90;;;7.40;99.90;;;;;;4992013;28;20817;-73
2023/12/20 01:23:29;;;;;;;1999.90;999.90;;;7.40;99.90;;;;;;4992138;28;20404;-73
2023/12/20 01:25:55;;;;;;;1999.90;999.90;;;7.30;99.90;;;;;;4992136;28;20413;-72
2023/12/20 01:28:21;;;;;;;1999.90;999.90;;;7.10;99.90;;;;;;4992078;28;20190;-73
2023/12/20 01:30:46;;;;;;;1999.90;999.90;;;7.30;99.90;;;;;;4992084;28;20181;-73
2023/12/20 01:33:12;;;;;;;1999.90;999.90;;;7.10;99.90;;;;;;4991992;28;20569;-73
2023/12/20 01:35:38;;;;;;;1999.90;999.90;;;;;;;;;;4992069;28;20467;-74
2023/12/20 01:38:04;;;;;;;1999.90;999.90;;;7.10;99.90;;;;;;4991955;28;20299;-73
2023/12/20 01:40:29;;;;;;;1999.90;999.90;;;7.10;99.90;;;;;;4994510;28;20408;-73
2023/12/20 01:43:02;;;;;;;1999.90;999.90;;;7.10;99.90;;;;;;4995652;28;20193;-73
2023/12/20 01:45:28;;;;;;;1999.90;999.90;;;7.10;99.90;;;;;;4995921;28;20170;-73
2023/12/20 01:47:55;;;;;;;1999.90;999.90;;;7.00;99.90;;;;;;4995698;28;20939;-73
2023/12/20 01:50:21;;;;;;;1999.90;999.90;;;6.70;99.90;;;;;;4995435;28;20198;-73
2023/12/20 01:52:48;;;;;;;1999.90;999.90;;;6.50;99.90;;;;;;4995516;28;20444;-73
2023/12/20 01:55:15;;;;;;;1999.90;999.90;;;6.70;99.90;;;;;;4995386;28;20889;-72
2023/12/20 01:57:45;;;;;;;1999.90;999.90;;;7.00;99.90;;;;;;4995693;28;20469;-73
2023/12/20 02:00:12;;;;;;;1999.90;999.90;;;6.40;99.90;;;;;;4995220;28;20416;-73
2023/12/20 02:02:40;;;;;;;1999.90;999.90;;;6.50;99.90;;;;;;4995406;28;20495;-74
2023/12/20 02:05:06;;;;;;;1999.90;999.90;;;6.50;99.90;;;;;;4995303;28;20444;-73
2023/12/20 02:07:34;;;;;;;1999.90;999.90;;;6.50;99.90;;;;;;4995174;28;20421;-74
2023/12/20 02:10:00;;;;;;;1999.90;999.90;;;;;;;;;;4995020;28;20441;-74
2023/12/20 02:12:26;;;;;;;1999.90;999.90;;;6.40;99.90;;;;;;4995101;28;20412;-74
2023/12/20 02:14:52;;;;;;;1999.90;999.90;;;6.30;99.90;;;;;;4995088;28;20452;-72
2023/12/20 02:17:18;;;;;;;1999.90;999.90;;;6.20;99.90;;;;;;4995142;28;20655;-74
2023/12/20 02:19:43;;;;;;;1999.90;999.90;;;6.30;99.90;;;;;;4994789;28;20702;-74
2023/12/20 02:22:10;;;;;;;1999.90;999.90;;;6.30;99.90;;;;;;4994953;28;20409;-74
2023/12/20 02:24:36;;;;;;;1999.90;999.90;;;6.30;99.90;;;;;;4995133;28;20174;-74
2023/12/20 02:27:02;;;;;;;1999.90;999.90;;;6.40;99.90;;;;;;4994936;28;20416;-74
2023/12/20 02:29:27;;;;;;;1999.90;999.90;;;6.40;99.90;;;;;;4994645;28;20936;-74
2023/12/20 02:31:53;;;;;;;1999.90;999.90;;;6.50;99.90;;;;;;4994948;28;20173;-74
2023/12/20 02:34:18;;;;;;;1999.90;999.90;;;6.50;99.90;;;;;;4994728;28;20201;-74
2023/12/20 02:36:44;;;;;;;1999.90;999.90;;;7.00;99.90;;;;;;4994710;28;20181;-73
2023/12/20 02:39:09;;;;;;;1999.90;999.90;;;6.60;99.90;;;;;;4994606;28;20646;-74
2023/12/20 02:41:35;;;;;;;1999.90;999.90;;;6.60;99.90;;;;;;4994499;28;20289;-74
2023/12/20 02:44:01;;;;;;;1999.90;999.90;;;6.60;99.90;;;;;;4994531;28;20186;-74
2023/12/20 02:46:27;;;;;;;1999.90;999.90;;;6.70;99.90;;;;;;4994621;28;20209;-75
2023/12/20 02:48:53;;;;;;;1999.90;999.90;;;6.70;99.90;;;;;;4994460;28;20465;-74
2023/12/20 02:51:18;;;;;;;1999.90;999.90;;;6.70;99.90;;;;;;4993030;28;20642;-72
2023/12/20 02:53:44;;;;;;;1999.90;999.90;;;6.60;99.90;;;;;;4994351;28;20224;-74
2023/12/20 02:56:10;;;;;;;1999.90;999.90;;;6.60;99.90;;;;;;4994467;28;20170;-74
2023/12/20 02:58:35;;;;;;;1999.90;999.90;;;6.60;99.90;;;;;;4994340;28;20190;-74
2023/12/20 03:01:01;;;;;;;1999.90;999.90;;;6.80;99.90;;;;;;4994160;28;20416;-74
2023/12/20 03:03:26;;;;;;;1999.90;999.90;;;6.80;99.90;;;;;;4994275;28;20178;-73
2023/12/20 03:05:52;;;;;;;1999.90;999.90;;;6.80;99.90;;;;;;4994255;28;20178;-74
2023/12/20 03:08:18;;;;;;;1999.90;999.90;;;6.20;99.90;;;;;;4994032;28;20677;-73
2023/12/20 03:10:43;;;;;;;1999.90;999.90;;;6.80;99.90;;;;;;4994004;28;20539;-74
2023/12/20 03:13:09;;;;;;;1999.90;999.90;;;;;;;;;;4993969;28;20209;-73
2023/12/20 03:15:35;;;;;;;1999.90;999.90;;;6.90;99.90;;;;;;4994170;28;20174;-73
2023/12/20 03:18:00;;;;;;;1999.90;999.90;;;6.80;99.90;;;;;;4994102;28;20444;-74
2023/12/20 03:20:26;;;;;;;1999.90;999.90;;;6.80;99.90;;;;;;4993819;28;20162;-74
2023/12/20 03:22:52;;;;;;;1999.90;999.90;;;6.40;99.90;;;;;;4993919;28;20224;-74
2023/12/20 03:25:17;;;;;;;1999.90;999.90;;;6.90;99.90;;;;;;4993932;28;20174;-73
2023/12/20 03:27:43;;;;;;;1999.90;999.90;;;6.30;99.90;;;;;;4993917;28;20598;-73
2023/12/20 03:30:09;;;;;;;1999.90;999.90;;;6.80;99.90;;;;;;4993578;28;20201;-74
2023/12/20 03:32:34;;;;;;;1999.90;999.90;;;6.80;99.90;;;;;;4993769;28;20170;-74
2023/12/20 03:35:00;;;;;;;1999.90;999.90;;;6.90;99.90;;;;;;4993635;28;20904;-74
2023/12/20 03:37:26;;;;;;;1999.90;999.90;;;6.90;99.90;;;;;;4993681;28;20217;-74
2023/12/20 03:39:51;;;;;;;1999.90;999.90;;;6.80;99.90;;;;;;4993395;28;20196;-74
2023/12/20 03:42:17;;;;;;;1999.90;999.90;;;6.80;99.90;;;;;;4993577;28;20174;-74
2023/12/20 03:44:42;;;;;;;1999.90;999.90;;;6.70;99.90;;;;;;4993562;28;20177;-74
2023/12/20 03:47:08;;;;;;;1999.90;999.90;;;6.40;99.90;;;;;;4993560;28;20630;-74
2023/12/20 03:49:33;;;;;;;1999.90;999.90;;;6.70;99.90;;;;;;4993013;28;20201;-73
2023/12/20 03:51:59;;;;;;;1999.90;999.90;;;6.80;99.90;;;;;;4993675;28;20181;-74
2023/12/20 03:54:24;;;;;;;1999.90;999.90;;;6.60;99.90;;;;;;4993270;28;20709;-74
2023/12/20 03:56:50;;;;;;;1999.90;999.90;;;6.80;99.90;;;;;;4993347;28;20541;-74
2023/12/20 03:59:17;;;;;;;1999.90;999.90;;;6.80;99.90;;;;;;4993555;28;20654;-74
2023/12/20 04:01:44;;;;;;;1999.90;999.90;;;6.70;99.90;;;;;;4992931;28;20654;-75
2023/12/20 04:04:10;;;;;;;1999.90;999.90;;;6.70;99.90;;;;;;4992610;28;20409;-74
2023/12/20 04:06:36;;;;;;;1999.90;999.90;;;6.60;99.90;;;;;;4993497;28;20979;-74
2023/12/20 04:09:01;;;;;;;1999.90;999.90;;;6.50;99.90;;;;;;4992989;28;20590;-74
2023/12/20 04:11:27;;;;;;;1999.90;999.90;;;6.70;99.90;;;;;;4992838;28;20185;-75
2023/12/20 04:13:53;;;;;;;1999.90;999.90;;;6.40;99.90;;;;;;4992910;28;20204;-75
2023/12/20 04:16:18;;;;;;;1999.90;999.90;;;6.70;99.90;;;;;;4992982;28;20166;-74
2023/12/20 04:18:44;;;;;;;1999.90;999.90;;;6.60;99.90;;;;;;4993128;28;20658;-74
2023/12/20 04:21:09;;;;;;;1999.90;999.90;;;6.70;99.90;;;;;;4992703;28;20212;-74
2023/12/20 04:23:35;;;;;;;1999.90;999.90;;;6.60;99.90;;;;;;4992864;28;20638;-74
2023/12/20 04:26:00;;;;;;;1999.90;999.90;;;6.60;99.90;;;;;;4992851;28;20174;-74
2023/12/20 04:28:26;;;;;;;1999.90;999.90;;;6.50;99.90;;;;;;4992733;28;20641;-74
2023/12/20 04:30:51;;;;;;;1999.90;999.90;;;6.50;99.90;;;;;;4992634;28;20208;-74
2023/12/20 04:33:17;;;;;;;1999.90;999.90;;;6.40;99.90;;;;;;4992588;28;20650;-74
2023/12/20 04:35:43;;;;;;;1999.90;999.90;;;6.40;99.90;;;;;;4992711;28;20181;-73
2023/12/20 04:38:09;;;;;;;1999.90;999.90;;;6.30;99.90;;;;;;4992731;28;20193;-75
2023/12/20 04:40:34;;;;;;;1999.90;999.90;;;6.30;99.90;;;;;;4992477;28;20569;-74
2023/12/20 04:43:00;;;;;;;1999.90;999.90;;;6.30;99.90;;;;;;4992575;28;20441;-73
2023/12/20 04:45:26;;;;;;;1999.90;999.90;;;6.70;99.90;;;;;;4992603;28;20205;-74
2023/12/20 04:47:51;;;;;;;1999.90;999.90;;;6.40;99.90;;;;;;4992533;28;20184;-74
2023/12/20 04:50:17;;;;;;;1999.90;999.90;;;6.30;99.90;;;;;;4992369;28;20180;-75
2023/12/20 04:52:43;;;;;;;1999.90;999.90;;;6.30;99.90;;;;;;4992514;28;20544;-74
2023/12/20 04:55:08;;;;;;;1999.90;999.90;;;6.30;99.90;;;;;;4992401;28;20208;-74
2023/12/20 04:57:35;;;;;;;1999.90;999.90;;;6.30;99.90;;;;;;4992469;28;20173;-74
2023/12/20 05:00:00;;;;;;;1999.90;999.90;;;6.30;99.90;;;;;;4992383;28;20201;-73
2023/12/20 05:02:26;;;;;;;1999.90;999.90;;;6.20;99.90;;;;;;4992376;28;20408;-75
2023/12/20 05:04:51;;;;;;;1999.90;999.90;;;6.30;99.90;;;;;;4992393;28;20530;-75
2023/12/20 05:07:17;;;;;;;1999.90;999.90;;;6.30;99.90;;;;;;4992249;28;20189;-74
2023/12/20 05:09:43;;;;;;;1999.90;999.90;;;6.40;99.90;;;;;;4992277;28;20285;-74
2023/12/20 05:12:08;;;;;;;1999.90;999.90;;;6.40;99.90;;;;;;4992374;28;20192;-75
2023/12/20 05:14:34;;;;;;;1999.90;999.90;;;6.40;99.90;;;;;;4993620;28;20236;-75
2023/12/20 05:16:59;;;;;;;1999.90;999.90;;;6.40;99.90;;;;;;4996355;28;20208;-75
2023/12/20 05:19:26;;;;;;;1999.90;999.90;;;6.40;99.90;;;;;;4995976;28;20194;-75
2023/12/20 05:21:52;;;;;;;1999.90;999.90;;;5.90;99.90;;;;;;4996240;28;20166;-75
2023/12/20 05:24:17;;;;;;;1999.90;999.90;;;6.40;99.90;;;;;;4996213;28;20420;-75
2023/12/20 05:26:43;;;;;;;1999.90;999.90;;;7.20;99.90;;;;;;4996201;28;20547;-75
2023/12/20 05:29:08;;;;;;;1999.90;999.90;;;6.40;99.90;;;;;;4996068;28;20198;-76
2023/12/20 05:31:34;;;;;;;1999.90;999.90;;;6.50;99.90;;;;;;4995808;28;20173;-75
2023/12/20 05:33:59;;;;;;;1999.90;999.90;;;6.40;99.90;;;;;;4995830;28;20197;-75
2023/12/20 05:36:25;;;;;;;1999.90;999.90;;;6.40;99.90;;;;;;4995978;28;20260;-75
2023/12/20 05:38:51;;;;;;;1999.90;999.90;;;6.40;99.90;;;;;;4995800;28;20200;-75
2023/12/20 05:41:16;;;;;;;1999.90;999.90;;;6.40;99.90;;;;;;4995723;28;20405;-76
2023/12/20 05:43:42;;;;;;;1999.90;999.90;;;6.40;99.90;;;;;;4995799;28;20220;-75
2023/12/20 05:46:11;;;;;;;1999.90;999.90;;;6.40;99.90;;;;;;4995817;28;20644;-76
2023/12/20 05:48:36;;;;;;;1999.90;999.90;;;6.40;99.90;;;;;;4995635;28;20654;-76
2023/12/20 05:51:02;;;;;;;1999.90;999.90;;;6.40;99.90;;;;;;4995515;28;20435;-76
2023/12/20 05:53:27;;;;;;;1999.90;999.90;;;6.50;99.90;;;;;;4995451;28;20607;-75
2023/12/20 05:55:53;;;;;;;1999.90;999.90;;;6.50;99.90;;;;;;4995579;28;20268;-76
2023/12/20 05:58:19;;;;;;;1999.90;999.90;;;6.50;99.90;;;;;;4995532;28;20190;-76
2023/12/20 06:00:44;;;;;;;1999.90;999.90;;;6.50;99.90;;;;;;4995366;28;20196;-76
2023/12/20 06:03:10;;;;;;;1999.90;999.90;;;6.50;99.90;;;;;;4995392;28;20415;-76
2023/12/20 06:05:36;;;;;;;1999.90;999.90;;;6.50;99.90;;;;;;4995439;28;20170;-75
2023/12/20 06:08:02;;;;;;;1999.90;999.90;;;6.60;99.90;;;;;;4995208;28;20247;-76
2023/12/20 06:10:28;;;;;;;1999.90;999.90;;;6.50;99.90;;;;;;4995178;28;20166;-76
2023/12/20 06:12:55;;;;;;;1999.90;999.90;;;6.60;99.90;;;;;;4995230;28;20412;-76
2023/12/20 06:15:20;;;;;;;1999.90;999.90;;;6.60;99.90;;;;;;4994955;28;20459;-75
2023/12/20 06:17:46;;;;;;;1999.90;999.90;;;6.70;99.90;;;;;;4995052;28;20409;-76
2023/12/20 06:20:12;;;;;;;1999.90;999.90;;;6.60;99.90;;;;;;4995001;28;20634;-75
2023/12/20 06:22:38;;;;;;;1999.90;999.90;;;6.50;99.90;;;;;;4994997;28;20776;-76
2023/12/20 06:25:05;;;;;;;1999.90;999.90;;;6.60;99.90;;;;;;4994776;28;20416;-74
2023/12/20 06:27:32;;;;;;;1999.90;999.90;;;6.60;99.90;;;;;;4995008;28;20185;-75
2023/12/20 06:29:57;;;;;;;1999.90;999.90;;;6.60;99.90;;;;;;4994713;28;20444;-76
2023/12/20 06:32:24;;;;;;;1999.90;999.90;;;6.60;99.90;;;;;;4994783;28;20413;-76
2023/12/20 06:34:50;;;;;;;1999.90;999.90;;;;;;;;;;4994885;28;20197;-76
2023/12/20 06:37:15;;;;;;;1999.90;999.90;;;6.60;99.90;;;;;;4994802;28;20398;-75
2023/12/20 06:39:41;;;;;;;1999.90;999.90;;;6.70;99.90;;;;;;4994508;28;20803;-75
2023/12/20 06:42:07;;;;;;;1999.90;999.90;;;6.70;99.90;;;;;;4994744;28;20197;-75
2023/12/20 06:44:32;;;;;;;1999.90;999.90;;;6.70;99.90;;;;;;4994606;28;20257;-74
2023/12/20 06:46:58;;;;;;;1999.90;999.90;;;6.70;99.90;;;;;;4994688;28;20668;-75
2023/12/20 06:49:23;;;;;;;1999.90;999.90;;;6.40;99.90;;;;;;4994439;28;20200;-75
2023/12/20 06:51:49;;;;;;;1999.90;999.90;;;6.70;99.90;;;;;;4994556;28;20178;-74
2023/12/20 06:54:15;;;;;;;1999.90;999.90;;;6.70;99.90;;;;;;4994465;28;20209;-76
2023/12/20 06:56:41;;;;;;;1999.90;999.90;;;6.50;99.90;;;;;;4994498;28;20541;-74
2023/12/20 06:59:06;;;;;;;1999.90;999.90;;;6.70;99.90;;;;;;4994410;28;20197;-75
2023/12/20 07:01:32;;;;;;;1999.90;999.90;;;6.70;99.90;;;;;;4994224;28;20252;-75
2023/12/20 07:03:57;;;;;;;1999.90;999.90;;;6.50;99.90;;;;;;4994354;28;20224;-75
2023/12/20 07:06:25;;;;;;;1999.90;999.90;;;6.70;99.90;;;;;;4994516;28;20240;-75
2023/12/20 07:08:52;;;;;;;1999.90;999.90;;;6.70;99.90;;;;;;4994370;28;20714;-75
2023/12/20 07:11:17;;;;;;;1999.90;999.90;;;6.40;99.90;;;;;;4994252;28;20409;-75
2023/12/20 07:13:43;;;;;;;1999.90;999.90;;;6.60;99.90;;;;;;4994227;28;20456;-75
2023/12/20 07:16:08;;;;;;;1999.90;999.90;;;6.60;99.90;;;;;;4994472;28;20170;-74
2023/12/20 07:18:34;;;;;;;1999.90;999.90;;;6.70;99.90;;;;;;4994169;28;20190;-75
2023/12/20 07:20:59;;;;;;;1999.90;999.90;;;6.70;99.90;;;;;;4993905;28;20173;-75
2023/12/20 07:23:26;;;;;;;1999.90;999.90;;;6.60;99.90;;;;;;4993973;28;20248;-76
2023/12/20 07:25:52;;;;;;;1999.90;999.90;;;6.70;99.90;;;;;;4994041;28;20301;-75
2023/12/20 07:28:17;;;;;;;1999.90;999.90;;;6.60;99.90;;;;;;4993952;28;20452;-75
2023/12/20 07:30:43;;;;;;;1999.90;999.90;;;6.60;99.90;;;;;;4993685;28;20239;-74
2023/12/20 07:33:09;;;;;;;1999.90;999.90;;;6.60;99.90;;;;;;4993722;28;20205;-76
2023/12/20 07:35:35;;;;;;;1999.90;999.90;;;7.30;99.90;;;;;;4993900;28;20205;-75
2023/12/20 07:38:02;;;;;;;1999.90;999.90;;;6.60;99.90;;;;;;4993093;28;20929;-75
2023/12/20 07:40:27;;;;;;;1999.90;999.90;;;6.90;99.90;;;;;;4993568;28;20197;-76
2023/12/20 07:42:53;;;;;;;1999.90;999.90;;;6.70;99.90;;;;;;4993705;28;20857;-75
2023/12/20 07:45:18;;;;;;;1999.90;999.90;;;6.70;99.90;;;;;;4993675;28;20182;-75
2023/12/20 07:47:44;;;;;;;1999.90;999.90;;;6.60;99.90;;;;;;4993727;28;20181;-75
2023/12/20 07:50:10;;;;;;;1999.90;999.90;;;6.80;99.90;;;;;;4993405;28;20662;-75
2023/12/20 07:52:35;;;;;;;1999.90;999.90;;;6.60;99.90;;;;;;4993422;28;20177;-76
2023/12/20 07:55:01;;;;;;;1999.90;999.90;;;6.60;99.90;;;;;;4993528;28;20596;-74
2023/12/20 07:57:30;;;;;;;1999.90;999.90;;;6.50;99.90;;;;;;4993510;28;20638;-75
2023/12/20 07:59:56;;;;;;;1999.90;999.90;;;6.50;99.90;;;;;;4993221;28;20937;-76
2023/12/20 08:02:21;;;;;;;1999.90;999.90;;;6.50;99.90;;;;;;4993441;28;20416;-76
2023/12/20 08:04:47;;;;;;;1999.90;999.90;;;6.40;99.90;;;;;;4993324;28;20598;-75
2023/12/20 08:07:13;;;;;;;1999.90;999.90;;;6.40;99.90;;;;;;4993164;28;20189;-75
2023/12/20 08:09:38;;;;;;;1999.90;999.90;;;6.40;99.90;;;;;;4993195;28;20244;-75
2023/12/20 08:12:04;;;;;;;1999.90;999.90;;;6.40;99.90;;;;;;4993229;28;20228;-76
2023/12/20 08:14:29;;;;;;;1999.90;999.90;;;6.30;99.90;;;;;;4992513;28;20236;-75
2023/12/20 08:16:55;;;;;;;1999.90;999.90;;;6.30;99.90;;;;;;4992787;28;20184;-75
2023/12/20 08:19:21;;;;;;;1999.90;999.90;;;6.30;99.90;;;;;;4992898;28;20205;-75
2023/12/20 08:21:46;;;;;;;1999.90;999.90;;;6.30;99.90;;;;;;4993098;28;20252;-75
2023/12/20 08:24:12;;;;;;;1999.90;999.90;;;6.00;99.90;;;;;;4992930;28;20181;-74
2023/12/20 08:26:37;;;;;;;1999.90;999.90;;;6.30;99.90;;;;;;4992906;28;20189;-76
2023/12/20 08:29:03;;;;;;;1999.90;999.90;;;6.00;99.90;;;;;;4992866;28;20206;-75
2023/12/20 08:31:29;;;;;;;1999.90;999.90;;;6.30;99.90;;;;;;4992930;28;20177;-75
2023/12/20 08:33:54;;;;;;;1999.90;999.90;;;6.30;99.90;;;;;;4992857;28;20684;-76
2023/12/20 08:36:22;;;;;;;1999.90;999.90;;;6.30;99.90;;;;;;4993030;28;20553;-75
2023/12/20 08:38:48;;;;;;;1999.90;999.90;;;6.30;99.90;;;;;;4993135;28;20643;-75
2023/12/20 08:41:13;;;;;;;1999.90;999.90;;;6.40;99.90;;;;;;4992776;28;20412;-76
2023/12/20 08:43:40;;;;;;;1999.90;999.90;;;6.30;99.90;;;;;;4992667;28;20178;-75
2023/12/20 08:46:05;;;;;;;1999.90;999.90;;;6.50;99.90;;;;;;4992881;28;20261;-74
2023/12/20 08:48:31;;;;;;;1999.90;999.90;;;6.30;99.90;;;;;;4992696;28;20992;-75
2023/12/20 08:50:57;;;;;;;1999.90;999.90;;;6.40;99.90;;;;;;4992569;28;20204;-74
2023/12/20 08:53:22;;;;;;;1999.90;999.90;;;6.40;99.90;;;;;;4989218;28;20791;-75
2023/12/20 08:55:48;;;;;;;1999.90;999.90;;;6.40;99.90;;;;;;4991069;28;20554;-74
2023/12/20 08:58:14;;;;;;;1999.90;999.90;;;6.50;99.90;;;;;;4991825;28;20194;-74
2023/12/20 09:00:39;;;;;;;1999.90;999.90;;;6.40;99.90;;;;;;4991798;28;20165;-75
2023/12/20 09:03:05;;;;;;;1999.90;999.90;;;6.50;99.90;;;;;;4992450;28;20551;-76
2023/12/20 09:05:31;;;;;;;1999.90;999.90;;;6.30;99.90;;;;;;4992285;28;20178;-74
2023/12/20 09:07:57;;;;;;;1999.90;999.90;;;6.60;99.90;;;;;;4992495;28;20672;-73
2023/12/20 09:10:22;;;;;;;1999.90;999.90;;;6.50;99.90;;;;;;4994434;28;20456;-74
2023/12/20 09:12:57;;;;;;;1999.90;999.90;;;6.70;99.90;;;;;;4991127;28;20217;-74
2023/12/20 09:15:26;;;;;;;1999.90;999.90;;;6.60;99.90;;;;;;4994831;28;20314;-73
2023/12/20 09:17:54;;;;;;;1999.90;999.90;;;6.50;99.90;;;;;;4993822;28;20441;-73
2023/12/20 09:20:20;;;;;;;1999.90;999.90;;;6.70;99.90;;;;;;4991865;28;20503;-74
2023/12/20 09:22:45;;;;;;;1999.90;999.90;;;6.80;99.90;;;;;;4990566;28;20181;-70
2023/12/20 09:25:12;;;;;;;1999.90;999.90;;;6.80;99.90;;;;;;4991778;28;20185;-71
2023/12/20 09:27:38;;;;;;;1999.90;999.90;;;6.90;99.90;;;;;;4988441;28;20190;-71
2023/12/20 09:30:05;;;;;;;1999.90;999.90;;;6.80;99.90;;;;;;4983434;28;20801;-71
2023/12/20 09:32:31;;;;;;;1999.90;999.90;;;6.90;99.90;;;;;;4983371;28;20193;-71
2023/12/20 09:34:56;;;;;;;1999.90;999.90;;;7.00;99.90;;;;;;4989969;28;20472;-71
2023/12/20 09:37:22;;;;;;;1999.90;999.90;;;7.00;99.90;;;;;;4991934;28;20785;-71
2023/12/20 09:39:47;;;;;;;1999.90;999.90;;;7.00;99.90;;;;;;4991059;28;20272;-71
2023/12/20 09:42:21;;;;;;;1999.90;999.90;;;7.00;99.90;;;;;;4991911;28;20177;-71
2023/12/20 09:44:47;;;;;;;1999.90;999.90;;;7.10;99.90;;;;;;4990850;28;20182;-71
2023/12/20 09:47:15;;;;;;;1999.90;999.90;;;7.10;99.90;;;;;;4990782;28;20951;-71
2023/12/20 09:49:42;;;;;;;1999.90;999.90;;;7.10;99.90;;;;;;4991062;28;20439;-71
2023/12/20 09:52:10;;;;;;;1999.90;999.90;;;7.10;99.90;;;;;;4983886;28;20467;-71
2023/12/20 09:54:36;;;;;;;1999.90;999.90;;;7.10;99.90;;;;;;4991523;28;20504;-71
2023/12/20 09:57:02;;;;;;;1999.90;999.90;;;7.10;99.90;;;;;;4991804;28;20892;-71
2023/12/20 09:59:27;;;;;;;1999.90;999.90;;;7.00;99.90;;;;;;4991458;28;20228;-71
2023/12/20 10:01:56;;;;;;;1999.90;999.90;;;7.10;99.90;;;;;;4995032;28;20262;-71
2023/12/20 10:04:22;;;;;;;1999.90;999.90;;;7.10;99.90;;;;;;4995326;28;20263;-70
2023/12/20 10:06:47;;;;;;;1999.90;999.90;;;7.10;99.90;;;;;;4995119;28;20448;-71
2023/12/20 10:09:14;;;;;;;1999.90;999.90;;;6.90;99.90;;;;;;4995155;28;20689;-72
2023/12/20 10:11:40;;;;;;;1999.90;999.90;;;7.10;99.90;;;;;;4994739;28;20594;-72
2023/12/20 10:14:10;;;;;;;1999.90;999.90;;;7.10;99.90;;;;;;4994791;28;20455;-71
2023/12/20 10:16:35;;;;;;;1999.90;999.90;;;7.50;99.90;;;;;;4994972;28;20181;-72
2023/12/20 10:19:01;;;;;;;1999.90;999.90;;;7.20;99.90;;;;;;4996736;28;20459;-71
2023/12/20 10:21:27;;;;;;;1999.90;999.90;;;7.30;99.90;;;;;;4999951;28;20180;-71
2023/12/20 10:23:56;;;;;;;1999.90;999.90;;;7.20;99.90;;;;;;4995032;28;20190;-71
2023/12/20 10:26:24;;;;;;;1999.90;999.90;;;7.30;99.90;;;;;;4995001;28;20240;-71
2023/12/20 10:29:00;;;;;;;1999.90;999.90;;;7.10;99.90;;;;;;4994659;28;20437;-71
2023/12/20 10:31:35;;;;;;;1999.90;999.90;;;7.20;99.90;;;;;;4994180;28;20486;-71
2023/12/20 10:34:02;;;;;;;1999.90;999.90;;;7.20;99.90;;;;;;4994340;28;20822;-71
2023/12/20 10:36:32;;;;;;;1999.90;999.90;;;7.20;99.90;;;;;;4994718;28;20782;-71
2023/12/20 10:38:58;;;;;;;1999.90;999.90;;;7.10;99.90;;;;;;4994446;28;20925;-71
2023/12/20 10:41:32;;;;;;;1999.90;999.90;;;7.10;99.90;;;;;;4994048;28;20417;-71
2023/12/20 10:44:00;;;;;;;1999.90;999.90;;;7.20;99.90;;;;;;4994303;28;20937;-71
2023/12/20 10:46:29;;;;;;;1999.90;999.90;;;7.20;99.90;;;;;;4994397;28;20499;-71
2023/12/20 10:48:56;;;;;;;1999.90;999.90;;;7.20;99.90;;;;;;4994284;28;20869;-71
2023/12/20 10:51:23;;;;;;;1999.90;999.90;;;7.30;99.90;;;;;;4993799;28;20421;-71
2023/12/20 10:53:50;;;;;;;1999.90;999.90;;;7.30;99.90;;;;;;4994058;28;20507;-71
2023/12/20 10:56:23;;;;;;;1999.90;999.90;;;7.30;99.90;;;;;;4994216;28;20405;-71
2023/12/20 10:58:50;;;;;;;1999.90;999.90;;;7.20;99.90;;;;;;4994077;28;20424;-71
2023/12/20 11:01:20;;;;;;;1999.90;999.90;;;7.30;99.90;;;;;;4993642;28;20427;-72
2023/12/20 11:03:52;;;;;;;1999.90;999.90;;;7.30;99.90;;;;;;4994176;28;20408;-71
2023/12/20 11:06:33;;;;;;;1999.90;999.90;;;7.30;99.90;;;;;;4994187;28;20464;-71
2023/12/20 11:09:22;;;;;;;1999.90;999.90;;;7.30;99.90;;;;;;4993824;28;20535;-71
2023/12/20 11:11:56;;;;;;;1999.90;999.90;;;7.30;99.90;;;;;;4992917;28;20417;-71
2023/12/20 11:14:39;;;;;;;1999.90;999.90;;;7.30;99.90;;;;;;4993780;28;20457;-71
2023/12/20 11:17:08;;;;;;;1999.90;999.90;;;7.30;99.90;;;;;;4993922;28;20885;-71
2023/12/20 11:19:38;;;;;;;1999.90;999.90;;;7.30;99.90;;;;;;4993172;28;20436;-71
2023/12/20 11:22:05;;;;;;;1999.90;999.90;;;7.30;99.90;;;;;;4993659;28;20421;-71
2023/12/20 11:24:32;;;;;;;1999.90;999.90;;;7.40;99.90;;;;;;4993816;28;20413;-71
2023/12/20 11:26:59;;;;;;;1999.90;999.90;;;7.30;99.90;;;;;;4993608;28;20476;-72
2023/12/20 11:29:36;;;;;;;1999.90;999.90;;;7.40;99.90;;;;;;4998401;28;20447;-72
2023/12/20 11:32:03;;;;;;;1999.90;999.90;;;7.40;99.90;;;;;;4993395;28;20416;-71
2023/12/20 11:34:35;;;;;;;1999.90;999.90;;;7.50;99.90;;;;;;4993529;28;20458;-71
2023/12/20 11:37:02;;;;;;;1999.90;999.90;;;7.50;99.90;;;;;;4991882;28;20424;-71
2023/12/20 11:39:30;;;;;;;1999.90;999.90;;;7.60;99.90;;;;;;4992790;28;20445;-72
2023/12/20 11:41:57;;;;;;;1999.90;999.90;;;7.60;99.90;;;;;;4992796;28;20421;-72
2023/12/20 11:44:23;;;;;;;1999.90;999.90;;;7.60;99.90;;;;;;4993610;28;20416;-71
2023/12/20 11:46:48;;;;;;;1999.90;999.90;;;7.60;99.90;;;;;;4992845;28;20789;-72
2023/12/20 11:49:14;;;;;;;1999.90;999.90;;;7.50;99.90;;;;;;4990691;28;20457;-71
2023/12/20 11:51:43;;;;;;;1999.90;999.90;;;7.60;99.90;;;;;;4992598;28;20935;-71
2023/12/20 11:54:10;;;;;;;1999.90;999.90;;;7.60;99.90;;;;;;4992859;28;20741;-71
2023/12/20 11:56:36;;;;;;;1999.90;999.90;;;7.60;99.90;;;;;;4992853;28;20500;-71
2023/12/20 11:59:02;;;;;;;1999.90;999.90;;;7.50;99.90;;;;;;4992693;28;20447;-71
2023/12/20 12:01:28;;;;;;;1999.90;999.90;;;7.60;99.90;;;;;;4992243;28;20417;-71
2023/12/20 12:04:12;;;;;;;1999.90;999.90;;;7.60;99.90;;;;;;4992980;28;20799;-71